Time;durP1;ratioP1;P1;durP2;ratioP2;P2;SDS_P1;SDS_P2;PMS_P1;PMS_P2;Temp;Humidity;BMP_temperature;BMP_pressure;BME280_temperature;BME280_humidity;BME280_pressure;Samples;Min_cycle;Max_cycle;Signal;HPM_P1;HPM_P2
2021/09/18 00:00:53;;;;;;;33.88;30.20;;;;;;;12.79;100.00;98570.47;2050072;29;20242;-76
2021/09/18 00:01:54;;;;;;;32.78;29.17;;;;;;;12.80;100.00;98577.41;2050536;28;20198;-76
2021/09/18 00:02:55;;;;;;;32.83;29.03;;;;;;;12.80;100.00;98577.41;2058774;28;20229;-77
2021/09/18 00:03:56;;;;;;;31.85;28.60;;;;;;;12.81;100.00;98578.19;2050113;29;20695;-75
2021/09/18 00:04:57;;;;;;;35.90;29.83;;;;;;;12.78;100.00;98566.25;2050117;29;20563;-76
2021/09/18 00:06:02;;;;;;;32.60;29.10;;;;;;;12.78;100.00;98578.84;2050183;28;20197;-76
2021/09/18 00:07:05;;;;;;;32.95;29.35;;;;;;;12.77;100.00;98578.06;2050051;29;20205;-76
2021/09/18 00:08:07;;;;;;;32.20;28.73;;;;;;;12.79;100.00;98580.41;2050064;29;20198;-76
2021/09/18 00:09:08;;;;;;;36.63;30.05;;;;;;;12.79;100.00;98581.19;2050273;28;20191;-76
2021/09/18 00:10:09;;;;;;;32.13;28.70;;;;;;;12.80;100.00;98572.03;2058716;28;20197;-76
2021/09/18 00:11:11;;;;;;;32.30;28.77;;;;;;;12.83;100.00;98579.41;2058913;28;20719;-76
2021/09/18 00:12:12;;;;;;;34.78;29.23;;;;;;;12.86;100.00;98575.34;2058718;28;20193;-76
2021/09/18 00:13:14;;;;;;;33.00;29.43;;;;;;;12.83;100.00;98576.75;2058645;28;20196;-76
2021/09/18 00:14:16;;;;;;;34.78;27.90;;;;;;;12.81;100.00;98578.97;2050098;29;20222;-76
2021/09/18 00:15:18;;;;;;;31.10;27.90;;;;;;;12.82;100.00;98580.53;2050464;28;20250;-76
2021/09/18 00:16:19;;;;;;;32.97;28.17;;;;;;;12.88;100.00;98579.25;2050017;29;20660;-76
2021/09/18 00:17:20;;;;;;;30.63;27.53;;;;;;;12.83;100.00;98575.97;2050044;29;20592;-76
2021/09/18 00:18:23;;;;;;;31.38;27.95;;;;;;;12.81;100.00;98588.88;2050090;28;20206;-76
2021/09/18 00:19:24;;;;;;;30.02;26.85;;;;;;;12.81;100.00;98576.28;2058598;28;20189;-76
2021/09/18 00:20:26;;;;;;;30.33;26.95;;;;;;;12.80;100.00;98577.41;2058474;28;20232;-76
2021/09/18 00:21:28;;;;;;;32.35;27.52;;;;;;;12.84;100.00;98575.63;2050063;29;20281;-76
2021/09/18 00:22:29;;;;;;;30.85;27.55;;;;;;;12.86;100.00;98578.81;2050117;28;20262;-76
2021/09/18 00:23:31;;;;;;;28.57;25.63;;;;;;;12.83;100.00;98575.97;2058708;28;20664;-76
2021/09/18 00:24:32;;;;;;;29.10;26.17;;;;;;;12.81;100.00;98573.63;2049585;29;20567;-77
2021/09/18 00:25:34;;;;;;;29.00;25.90;;;;;;;12.83;100.00;98587.47;2049877;29;20229;-75
2021/09/18 00:26:35;;;;;;;29.70;26.65;;;;;;;12.86;100.00;98573.44;2050024;28;20642;-76
2021/09/18 00:27:37;;;;;;;30.00;26.45;;;;;;;12.84;100.00;98572.97;2058637;28;20269;-75
2021/09/18 00:28:39;;;;;;;28.70;25.70;;;;;;;12.82;100.00;98577.84;2058634;28;20285;-75
2021/09/18 00:29:41;;;;;;;28.30;25.42;;;;;;;12.83;100.00;98576.75;2049919;29;20202;-75
2021/09/18 00:30:42;;;;;;;28.38;25.52;;;;;;;12.80;100.00;98582.75;2050181;28;20191;-75
2021/09/18 00:31:43;;;;;;;28.43;25.53;;;;;;;12.83;100.00;98578.63;2058559;28;20230;-75
2021/09/18 00:32:44;;;;;;;29.77;26.67;;;;;;;12.81;100.00;98578.97;2058480;28;20280;-75
2021/09/18 00:33:46;;;;;;;28.40;25.53;;;;;;;12.78;100.00;98574.28;2058708;28;20201;-75
2021/09/18 00:34:49;;;;;;;28.80;25.83;;;;;;;12.83;100.00;98574.06;2058534;28;20186;-77
2021/09/18 00:35:50;;;;;;;27.98;25.17;;;;;;;12.87;100.00;98575.00;2058508;28;20192;-75
2021/09/18 00:36:51;;;;;;;26.80;24.03;;;;;;;12.83;100.00;98574.06;2058564;28;20225;-76
2021/09/18 00:37:52;;;;;;;27.83;25.10;;;;;;;12.80;100.00;98577.41;2058471;28;20280;-76
2021/09/18 00:38:55;;;;;;;28.30;25.27;;;;;;;12.83;100.00;98566.03;2049884;29;20209;-76
2021/09/18 00:39:56;;;;;;;27.95;25.13;;;;;;;12.82;100.00;98575.19;2049905;28;20286;-76
2021/09/18 00:40:57;;;;;;;27.30;24.60;;;;;;;12.78;100.00;98573.47;2049808;29;20244;-75
2021/09/18 00:41:59;;;;;;;26.77;24.27;;;;;;;12.75;100.00;98564.19;2050259;28;20210;-76
2021/09/18 00:43:01;;;;;;;27.27;24.57;;;;;;;12.73;100.00;98577.91;2058548;28;20188;-76
2021/09/18 00:44:01;;;;;;;27.55;24.88;;;;;;;12.72;100.00;98559.47;2049812;29;20202;-76
2021/09/18 00:45:04;;;;;;;26.17;23.47;;;;;;;12.71;100.00;98566.72;2049890;29;20194;-76
2021/09/18 00:46:04;;;;;;;28.63;23.92;;;;;;;12.71;100.00;98569.41;2058408;28;20193;-75
2021/09/18 00:47:06;;;;;;;26.17;23.67;;;;;;;12.72;100.00;98568.28;2049748;29;20241;-76
2021/09/18 00:48:07;;;;;;;24.83;22.20;;;;;;;12.71;100.00;98565.94;2049861;29;20224;-76
2021/09/18 00:49:08;;;;;;;25.60;23.20;;;;;;;12.69;100.00;98579.66;2058463;28;20196;-76
2021/09/18 00:50:09;;;;;;;26.77;24.23;;;;;;;12.73;100.00;98572.53;2049738;29;20190;-75
2021/09/18 00:51:11;;;;;;;25.30;23.00;;;;;;;12.70;100.00;98567.84;2041854;29;20773;-76
2021/09/18 00:52:12;;;;;;;27.40;24.20;;;;;;;12.69;100.00;98560.13;2050025;28;20197;-76
2021/09/18 00:53:14;;;;;;;26.20;23.63;;;;;;;12.67;100.00;98570.34;2058443;28;20711;-76
2021/09/18 00:54:16;;;;;;;26.58;23.45;;;;;;;12.64;100.00;98573.69;2058458;28;20190;-76
2021/09/18 00:55:18;;;;;;;26.27;23.50;;;;;;;12.67;100.00;98578.38;2049677;29;20203;-75
2021/09/18 00:56:23;;;;;;;27.50;23.92;;;;;;;12.67;100.00;98579.16;2050068;28;20644;-76
2021/09/18 00:57:25;;;;;;;31.27;24.50;;;;;;;12.68;100.00;98591.47;2049702;29;20194;-76
2021/09/18 00:58:25;;;;;;;25.65;23.25;;;;;;;12.69;100.00;98586.91;2041533;29;20647;-76
2021/09/18 00:59:28;;;;;;;26.85;24.17;;;;;;;12.66;100.00;98579.50;2050157;28;20257;-76
2021/09/18 01:00:29;;;;;;;27.30;24.58;;;;;;;12.61;100.00;98577.78;2049324;29;20226;-76
2021/09/18 01:01:30;;;;;;;27.20;24.23;;;;;;;12.57;100.00;98579.53;2049788;29;20209;-75
2021/09/18 01:02:32;;;;;;;27.05;24.35;;;;;;;12.52;100.00;98582.41;2049584;29;20269;-76
2021/09/18 01:03:35;;;;;;;27.15;24.35;;;;;;;12.50;100.00;98578.44;2041125;29;20227;-76
2021/09/18 01:04:38;;;;;;;26.88;24.10;;;;;;;12.50;100.00;98589.16;2050174;28;20194;-75
2021/09/18 01:05:40;;;;;;;26.50;23.90;;;;;;;12.49;100.00;98582.22;2058518;28;20245;-75
2021/09/18 01:06:41;;;;;;;28.35;24.73;;;;;;;12.48;100.00;98586.00;2058413;28;20225;-75
2021/09/18 01:07:43;;;;;;;27.27;24.50;;;;;;;12.45;100.00;98596.25;2049381;29;20213;-76
2021/09/18 01:08:48;;;;;;;27.75;24.88;;;;;;;12.40;100.00;98595.63;2041455;29;20203;-75
2021/09/18 01:09:55;;;;;;;30.52;25.08;;;;;;;12.36;100.00;98590.16;2049644;28;20185;-75
2021/09/18 01:10:55;;;;;;;31.23;25.45;;;;;;;12.36;100.00;98600.06;2049594;29;20666;-75
2021/09/18 01:11:57;;;;;;;30.17;24.50;;;;;;;12.37;100.00;98589.03;2049686;29;20213;-75
2021/09/18 01:13:00;;;;;;;27.13;24.17;;;;;;;12.37;100.00;98596.28;2058238;28;20679;-75
2021/09/18 01:14:01;;;;;;;27.30;24.40;;;;;;;12.36;100.00;98587.47;2058240;28;20190;-76
2021/09/18 01:15:02;;;;;;;27.80;25.00;;;;;;;12.35;100.00;98588.59;2058160;28;20308;-74
2021/09/18 01:16:04;;;;;;;27.20;24.33;;;;;;;12.39;100.00;98594.84;2058196;28;20201;-76
2021/09/18 01:17:07;;;;;;;28.80;25.17;;;;;;;12.39;100.00;98594.84;2058211;28;20197;-75
2021/09/18 01:18:10;;;;;;;31.50;25.90;;;;;;;12.35;100.00;98590.47;2058254;28;20182;-75
2021/09/18 01:19:12;;;;;;;28.30;25.02;;;;;;;12.34;100.00;98589.69;2058371;28;20232;-76
2021/09/18 01:20:12;;;;;;;27.52;24.85;;;;;;;12.40;100.00;98587.59;2058392;28;20228;-75
2021/09/18 01:21:14;;;;;;;27.50;24.57;;;;;;;12.42;100.00;98593.41;2058324;28;20637;-76
2021/09/18 01:22:18;;;;;;;27.77;24.95;;;;;;;12.39;100.00;98592.19;2058321;28;20204;-75
2021/09/18 01:23:25;;;;;;;28.25;25.08;;;;;;;12.39;100.00;98586.81;2058159;28;20679;-75
2021/09/18 01:24:26;;;;;;;29.38;25.92;;;;;;;12.40;100.00;98591.06;2049246;29;20249;-76
2021/09/18 01:25:29;;;;;;;28.40;24.73;;;;;;;12.44;100.00;98585.88;2049573;29;20198;-75
2021/09/18 01:26:32;;;;;;;29.50;25.25;;;;;;;12.37;100.00;98577.56;2049128;29;20217;-76
2021/09/18 01:27:33;;;;;;;27.60;24.65;;;;;;;12.44;100.00;98586.66;2049846;28;20230;-75
2021/09/18 01:28:35;;;;;;;27.43;24.70;;;;;;;12.41;100.00;98581.16;2058113;28;20193;-75
2021/09/18 01:29:35;;;;;;;27.55;24.67;;;;;;;12.42;100.00;98586.22;2058094;28;20251;-76
2021/09/18 01:30:37;;;;;;;28.40;25.40;;;;;;;12.38;100.00;98590.59;2058094;28;20190;-76
2021/09/18 01:31:44;;;;;;;28.52;25.52;;;;;;;12.43;100.00;98587.00;2049401;29;20294;-77
2021/09/18 01:32:45;;;;;;;29.60;24.70;;;;;;;12.36;100.00;98571.41;2050346;28;20314;-76
2021/09/18 01:33:46;;;;;;;27.50;24.60;;;;;;;12.37;100.00;98581.03;2058108;28;20178;-76
2021/09/18 01:34:49;;;;;;;29.23;25.10;;;;;;;12.38;100.00;98576.44;2049103;29;20210;-76
2021/09/18 01:35:50;;;;;;;28.50;24.83;;;;;;;12.39;100.00;98576.13;2049817;28;20237;-76
2021/09/18 01:36:53;;;;;;;29.08;25.92;;;;;;;12.36;100.00;98579.44;2058212;28;20236;-77
2021/09/18 01:37:56;;;;;;;28.10;25.08;;;;;;;12.38;100.00;98582.59;2049355;29;20198;-77
2021/09/18 01:38:59;;;;;;;27.17;24.30;;;;;;;12.36;100.00;98579.44;2041682;29;20233;-76
2021/09/18 01:40:00;;;;;;;26.33;23.63;;;;;;;12.37;100.00;98582.91;2049782;28;20206;-76
2021/09/18 01:41:02;;;;;;;30.47;24.83;;;;;;;12.36;100.00;98576.00;2048980;29;20198;-77
2021/09/18 01:42:02;;;;;;;28.08;25.38;;;;;;;12.35;100.00;98572.53;2049492;29;20692;-77
2021/09/18 01:43:04;;;;;;;28.00;25.00;;;;;;;12.35;100.00;98574.41;2058232;28;20550;-76
2021/09/18 01:44:05;;;;;;;26.48;23.70;;;;;;;12.36;100.00;98571.41;2049342;29;20197;-76
2021/09/18 01:45:08;;;;;;;27.27;24.57;;;;;;;12.35;100.00;98575.22;2049504;29;20190;-77
2021/09/18 01:46:11;;;;;;;26.90;24.30;;;;;;;12.37;100.00;98577.56;2049326;29;20202;-77
2021/09/18 01:47:12;;;;;;;28.65;24.80;;;;;;;12.34;100.00;98576.31;2041365;29;20211;-76
2021/09/18 01:48:14;;;;;;;26.63;24.07;;;;;;;12.32;100.00;98567.81;2049654;29;20194;-77
2021/09/18 01:49:16;;;;;;;26.77;24.13;;;;;;;12.34;100.00;98576.31;2049373;29;20206;-77
2021/09/18 01:50:23;;;;;;;26.33;23.63;;;;;;;12.31;100.00;98579.59;2049810;28;20179;-76
2021/09/18 01:51:27;;;;;;;26.92;24.33;;;;;;;12.28;100.00;98576.78;2058176;28;20202;-76
2021/09/18 01:52:33;;;;;;;26.67;24.13;;;;;;;12.34;100.00;98579.00;2058209;28;20551;-77
2021/09/18 01:53:35;;;;;;;27.02;24.40;;;;;;;12.33;100.00;98572.03;2057996;28;20696;-76
2021/09/18 01:54:37;;;;;;;26.40;23.90;;;;;;;12.33;100.00;98573.94;2049374;29;20627;-76
2021/09/18 01:55:39;;;;;;;27.17;24.17;;;;;;;12.35;100.00;98571.75;2049354;29;20233;-77
2021/09/18 01:56:39;;;;;;;25.98;23.55;;;;;;;12.41;100.00;98567.78;2049542;28;20221;-76
2021/09/18 01:57:42;;;;;;;26.67;24.17;;;;;;;12.38;100.00;98555.84;2049332;29;20191;-77
2021/09/18 01:58:45;;;;;;;28.02;23.67;;;;;;;12.38;100.00;98571.88;2049377;28;20230;-77
2021/09/18 01:59:48;;;;;;;26.30;23.85;;;;;;;12.38;100.00;98566.53;2049320;29;20637;-77
2021/09/18 02:00:51;;;;;;;26.25;23.67;;;;;;;12.35;100.00;98561.84;2049732;28;20210;-77
2021/09/18 02:01:52;;;;;;;27.75;25.02;;;;;;;12.33;100.00;98568.59;2049302;29;20679;-77
2021/09/18 02:02:54;;;;;;;27.98;24.80;;;;;;;12.35;100.00;98564.50;2041350;29;20342;-77
2021/09/18 02:03:55;;;;;;;27.63;25.02;;;;;;;12.36;100.00;98565.28;2041320;29;20202;-77
2021/09/18 02:04:56;;;;;;;26.30;23.80;;;;;;;12.38;100.00;98555.84;2049591;28;20186;-76
2021/09/18 02:06:00;;;;;;;27.63;24.93;;;;;;;12.39;100.00;98562.75;2057896;28;20190;-77
2021/09/18 02:07:03;;;;;;;29.08;25.50;;;;;;;12.42;100.00;98559.44;2058090;28;20320;-77
2021/09/18 02:08:05;;;;;;;27.50;24.90;;;;;;;12.39;100.00;98556.63;2049175;29;20297;-76
2021/09/18 02:09:06;;;;;;;26.42;24.00;;;;;;;12.37;100.00;98554.25;2049322;29;20202;-77
2021/09/18 02:10:13;;;;;;;26.63;24.03;;;;;;;12.39;100.00;98557.41;2049550;29;20281;-77
2021/09/18 02:11:15;;;;;;;27.40;24.75;;;;;;;12.38;100.00;98555.84;2049186;29;20202;-77
2021/09/18 02:12:16;;;;;;;26.35;23.73;;;;;;;12.36;100.00;98552.69;2041303;29;20250;-76
2021/09/18 02:13:19;;;;;;;26.97;24.53;;;;;;;12.37;100.00;98558.84;2049452;29;20194;-76
2021/09/18 02:14:22;;;;;;;26.55;24.05;;;;;;;12.36;100.00;98551.91;2049116;29;20206;-76
2021/09/18 02:15:25;;;;;;;27.67;25.00;;;;;;;12.35;100.00;98548.44;2049438;28;20198;-77
2021/09/18 02:16:26;;;;;;;28.35;25.50;;;;;;;12.36;100.00;98552.69;2057290;28;20707;-76
2021/09/18 02:17:27;;;;;;;26.85;24.27;;;;;;;12.34;100.00;98548.78;2057917;28;20302;-76
2021/09/18 02:18:29;;;;;;;27.17;24.47;;;;;;;12.36;100.00;98546.56;2057941;28;20201;-76
2021/09/18 02:19:30;;;;;;;27.38;24.63;;;;;;;12.38;100.00;98553.16;2049166;29;20203;-76
2021/09/18 02:20:33;;;;;;;28.05;25.25;;;;;;;12.36;100.00;98557.25;2049323;28;20570;-76
2021/09/18 02:21:34;;;;;;;27.33;24.33;;;;;;;12.37;100.00;98550.81;2052074;28;20186;-76
2021/09/18 02:22:36;;;;;;;26.07;23.57;;;;;;;12.33;100.00;98552.53;2060596;28;20277;-76
2021/09/18 02:23:36;;;;;;;26.83;24.13;;;;;;;12.33;100.00;98553.31;2051824;29;20281;-76
2021/09/18 02:24:38;;;;;;;25.27;22.80;;;;;;;12.32;100.00;98557.09;2052143;28;20197;-76
2021/09/18 02:25:42;;;;;;;26.33;23.92;;;;;;;12.34;100.00;98549.56;2060511;28;20262;-76
2021/09/18 02:26:43;;;;;;;25.50;23.02;;;;;;;12.36;100.00;98558.06;2060609;28;20193;-76
2021/09/18 02:27:46;;;;;;;25.65;23.25;;;;;;;12.37;100.00;98564.97;2060503;28;20675;-76
2021/09/18 02:28:47;;;;;;;25.52;23.13;;;;;;;12.35;100.00;98556.47;2060465;28;20194;-77
2021/09/18 02:29:49;;;;;;;26.20;23.73;;;;;;;12.33;100.00;98547.97;2060459;28;20213;-77
2021/09/18 02:30:50;;;;;;;25.00;22.70;;;;;;;12.30;100.00;98551.28;2060453;28;20190;-76
2021/09/18 02:31:51;;;;;;;25.27;22.73;;;;;;;12.33;100.00;98547.97;2060483;28;20194;-76
2021/09/18 02:32:53;;;;;;;24.10;22.00;;;;;;;12.33;100.00;98544.50;2051485;28;20201;-76
2021/09/18 02:33:53;;;;;;;25.05;22.95;;;;;;;12.35;100.00;98561.06;2052107;28;20672;-76
2021/09/18 02:34:56;;;;;;;23.10;20.92;;;;;;;12.36;100.00;98541.22;2051796;29;20549;-75
2021/09/18 02:35:57;;;;;;;23.80;21.63;;;;;;;12.35;100.00;98545.78;2051767;29;20249;-76
2021/09/18 02:36:59;;;;;;;23.40;21.30;;;;;;;12.37;100.00;98548.13;2052005;29;20197;-77
2021/09/18 02:38:01;;;;;;;23.63;21.33;;;;;;;12.34;100.00;98554.91;2051729;29;20217;-76
2021/09/18 02:39:02;;;;;;;23.77;21.58;;;;;;;12.32;100.00;98534.91;2044054;29;20207;-76
2021/09/18 02:40:05;;;;;;;24.10;21.63;;;;;;;12.32;100.00;98541.06;2043852;29;20299;-76
2021/09/18 02:41:10;;;;;;;22.35;20.35;;;;;;;12.33;100.00;98537.25;2051684;29;20309;-76
2021/09/18 02:42:12;;;;;;;23.70;21.50;;;;;;;12.31;100.00;98538.69;2051832;29;20198;-76
2021/09/18 02:43:14;;;;;;;22.38;20.08;;;;;;;12.31;100.00;98541.38;2051895;28;20205;-76
2021/09/18 02:44:15;;;;;;;21.98;20.08;;;;;;;12.27;100.00;98549.25;2051382;29;20206;-76
2021/09/18 02:45:17;;;;;;;23.20;20.77;;;;;;;12.29;100.00;98536.34;2051930;28;20270;-76
2021/09/18 02:46:19;;;;;;;21.67;19.75;;;;;;;12.29;100.00;98549.72;2060413;28;20606;-76
2021/09/18 02:47:20;;;;;;;21.52;19.83;;;;;;;12.28;100.00;98534.78;2051788;29;20194;-76
2021/09/18 02:48:22;;;;;;;22.00;20.13;;;;;;;12.26;100.00;98541.56;2051808;29;20202;-76
2021/09/18 02:49:22;;;;;;;20.02;18.48;;;;;;;12.25;100.00;98540.78;2052080;28;20206;-76
2021/09/18 02:50:25;;;;;;;21.00;18.93;;;;;;;12.32;100.00;98545.63;2060429;28;20197;-76
2021/09/18 02:51:26;;;;;;;20.52;18.75;;;;;;;12.29;100.00;98536.34;2060367;28;20213;-77
2021/09/18 02:52:27;;;;;;;19.90;18.20;;;;;;;12.28;100.00;98547.38;2051701;29;20259;-76
2021/09/18 02:53:28;;;;;;;20.15;18.48;;;;;;;12.28;100.00;98539.34;2052027;28;20222;-76
2021/09/18 02:54:30;;;;;;;20.03;18.43;;;;;;;12.27;100.00;98543.13;2060332;28;20201;-76
2021/09/18 02:55:31;;;;;;;20.02;18.38;;;;;;;12.25;100.00;98540.78;2060372;28;20201;-76
2021/09/18 02:56:35;;;;;;;20.05;18.33;;;;;;;12.25;100.00;98543.47;2051713;29;20622;-76
2021/09/18 02:57:36;;;;;;;19.75;18.05;;;;;;;12.22;100.00;98544.06;2051946;28;20204;-76
2021/09/18 02:58:37;;;;;;;19.23;17.47;;;;;;;12.23;100.00;98542.97;2051439;28;20225;-76
2021/09/18 02:59:38;;;;;;;18.25;16.85;;;;;;;12.22;100.00;98538.72;2051835;28;20600;-77
2021/09/18 03:00:40;;;;;;;17.83;16.43;;;;;;;12.23;100.00;98537.63;2051133;29;20209;-76
2021/09/18 03:01:40;;;;;;;17.60;16.08;;;;;;;12.21;100.00;98529.13;2043817;29;20241;-76
2021/09/18 03:02:43;;;;;;;18.03;16.63;;;;;;;12.18;100.00;98532.47;2051840;29;20189;-76
2021/09/18 03:03:43;;;;;;;17.92;16.52;;;;;;;12.19;100.00;98530.56;2051665;28;20213;-76
2021/09/18 03:04:45;;;;;;;17.37;15.97;;;;;;;12.14;100.00;98529.63;2043239;29;20302;-76
2021/09/18 03:05:46;;;;;;;17.77;16.33;;;;;;;12.13;100.00;98536.06;2051717;28;20206;-76
2021/09/18 03:06:47;;;;;;;17.27;15.98;;;;;;;12.14;100.00;98531.50;2051284;29;20206;-76
2021/09/18 03:07:49;;;;;;;18.03;16.27;;;;;;;12.10;100.00;98528.69;2051754;29;20190;-76
2021/09/18 03:08:52;;;;;;;17.25;16.05;;;;;;;12.12;100.00;98531.06;2060282;28;20221;-76
2021/09/18 03:09:53;;;;;;;18.02;16.60;;;;;;;12.12;100.00;98515.00;2060236;28;20193;-76
2021/09/18 03:10:54;;;;;;;17.67;16.38;;;;;;;12.12;100.00;98523.03;2060428;28;20204;-77
2021/09/18 03:11:57;;;;;;;18.40;16.67;;;;;;;12.10;100.00;98533.25;2060397;28;20196;-76
2021/09/18 03:12:58;;;;;;;17.17;15.98;;;;;;;12.12;100.00;98536.41;2060314;28;20192;-76
2021/09/18 03:13:59;;;;;;;17.80;16.50;;;;;;;12.09;100.00;98532.47;2051620;29;20793;-76
2021/09/18 03:15:00;;;;;;;17.40;16.10;;;;;;;12.07;100.00;98536.56;2052033;28;20716;-76
2021/09/18 03:16:02;;;;;;;18.53;16.97;;;;;;;12.15;100.00;98535.75;2060291;28;20551;-76
2021/09/18 03:17:06;;;;;;;18.90;17.25;;;;;;;12.12;100.00;98536.41;2051599;29;20241;-77
2021/09/18 03:18:08;;;;;;;18.15;16.52;;;;;;;12.09;100.00;98526.34;2052163;28;20756;-76
2021/09/18 03:19:09;;;;;;;18.33;16.83;;;;;;;12.06;100.00;98529.63;2060282;28;20194;-76
2021/09/18 03:20:11;;;;;;;18.77;17.10;;;;;;;12.05;100.00;98531.53;2060469;28;20197;-76
2021/09/18 03:21:12;;;;;;;18.10;16.70;;;;;;;12.09;100.00;98537.03;2060177;28;20323;-76
2021/09/18 03:22:14;;;;;;;18.50;16.97;;;;;;;12.09;100.00;98535.16;2051252;29;20214;-76
2021/09/18 03:23:16;;;;;;;19.02;17.42;;;;;;;12.07;100.00;98523.97;2050919;29;20194;-76
2021/09/18 03:24:18;;;;;;;19.60;18.10;;;;;;;12.07;100.00;98534.66;2043948;29;20199;-76
2021/09/18 03:25:19;;;;;;;19.70;17.77;;;;;;;12.05;100.00;98530.75;2051591;29;20657;-77
2021/09/18 03:26:21;;;;;;;19.67;17.93;;;;;;;12.04;100.00;98539.88;2051755;29;20242;-76
2021/09/18 03:27:23;;;;;;;19.75;17.98;;;;;;;12.01;100.00;98522.59;2059203;28;20320;-77
2021/09/18 03:28:25;;;;;;;21.15;19.00;;;;;;;12.06;100.00;98535.78;2051537;29;20194;-76
2021/09/18 03:29:26;;;;;;;21.00;18.67;;;;;;;12.08;100.00;98536.25;2051692;28;20285;-76
2021/09/18 03:30:28;;;;;;;21.25;19.20;;;;;;;12.07;100.00;98533.88;2051604;29;20201;-76
2021/09/18 03:31:29;;;;;;;20.02;18.33;;;;;;;12.05;100.00;98531.53;2051642;29;20288;-76
2021/09/18 03:32:30;;;;;;;20.97;19.07;;;;;;;12.05;100.00;98547.56;2042603;29;20207;-77
2021/09/18 03:33:31;;;;;;;20.40;18.58;;;;;;;12.04;100.00;98529.97;2042293;29;20234;-76
2021/09/18 03:34:33;;;;;;;19.40;17.70;;;;;;;12.01;100.00;98532.50;2050449;29;20198;-76
2021/09/18 03:35:33;;;;;;;19.80;18.10;;;;;;;12.01;100.00;98535.19;2058983;28;20193;-76
2021/09/18 03:36:35;;;;;;;20.53;18.63;;;;;;;12.00;100.00;98534.38;2049924;29;20673;-77
2021/09/18 03:37:37;;;;;;;20.92;18.85;;;;;;;11.98;100.00;98538.47;2050442;28;20202;-77
2021/09/18 03:38:38;;;;;;;21.10;19.00;;;;;;;12.00;100.00;98531.72;2058904;28;20241;-77
2021/09/18 03:39:39;;;;;;;20.83;19.02;;;;;;;12.01;100.00;98529.81;2058918;28;20228;-76
2021/09/18 03:40:41;;;;;;;20.10;18.40;;;;;;;11.99;100.00;98532.00;2049907;29;20213;-76
2021/09/18 03:41:41;;;;;;;20.58;18.75;;;;;;;11.97;100.00;98531.56;2042306;29;20250;-76
2021/09/18 03:42:45;;;;;;;21.07;18.90;;;;;;;12.00;100.00;98534.38;2042328;29;20195;-76
2021/09/18 03:43:45;;;;;;;20.73;18.83;;;;;;;11.96;100.00;98530.75;2050563;28;20201;-76
2021/09/18 03:44:49;;;;;;;21.00;19.00;;;;;;;11.95;100.00;98531.88;2059007;28;20200;-76
2021/09/18 03:45:51;;;;;;;21.20;19.08;;;;;;;11.91;100.00;98533.63;2058889;28;20286;-77
2021/09/18 03:46:53;;;;;;;21.33;19.25;;;;;;;11.99;100.00;98537.34;2058862;28;20201;-76
2021/09/18 03:47:54;;;;;;;20.55;18.63;;;;;;;11.98;100.00;98535.78;2058864;28;20232;-77
2021/09/18 03:48:55;;;;;;;20.47;18.43;;;;;;;12.00;100.00;98529.03;2058872;28;20197;-76
2021/09/18 03:49:56;;;;;;;20.33;18.42;;;;;;;11.97;100.00;98531.56;2050152;29;20206;-76
2021/09/18 03:50:59;;;;;;;20.50;18.80;;;;;;;11.98;100.00;98541.13;2042224;29;20203;-76
2021/09/18 03:52:00;;;;;;;21.83;19.70;;;;;;;11.97;100.00;98539.56;2050817;28;20350;-77
2021/09/18 03:53:02;;;;;;;20.03;18.13;;;;;;;11.93;100.00;98533.31;2050032;29;20202;-76
2021/09/18 03:54:03;;;;;;;20.60;18.50;;;;;;;11.95;100.00;98531.09;2050324;28;20282;-76
2021/09/18 03:55:05;;;;;;;20.23;18.33;;;;;;;11.93;100.00;98535.97;2058926;28;20208;-77
2021/09/18 03:56:06;;;;;;;20.25;18.48;;;;;;;11.91;100.00;98538.97;2049476;29;20739;-77
2021/09/18 03:57:07;;;;;;;20.60;18.60;;;;;;;11.92;100.00;98537.06;2050250;29;20529;-77
2021/09/18 03:58:10;;;;;;;21.35;19.55;;;;;;;11.88;100.00;98532.34;2058737;28;20225;-77
2021/09/18 03:59:12;;;;;;;21.52;19.40;;;;;;;11.86;100.00;98529.22;2058647;28;20230;-77
2021/09/18 04:00:13;;;;;;;20.13;18.40;;;;;;;11.88;100.00;98542.25;2058967;28;20277;-77
2021/09/18 04:01:15;;;;;;;20.67;18.70;;;;;;;11.91;100.00;98536.28;2049749;29;20218;-76
2021/09/18 04:02:15;;;;;;;21.27;19.00;;;;;;;11.91;100.00;98533.63;2050243;28;20234;-76
2021/09/18 04:03:17;;;;;;;19.90;18.10;;;;;;;11.89;100.00;98541.94;2058739;28;20201;-77
2021/09/18 04:04:18;;;;;;;19.60;17.92;;;;;;;11.89;100.00;98543.81;2058946;28;20599;-77
2021/09/18 04:05:20;;;;;;;20.33;18.17;;;;;;;11.87;100.00;98535.34;2058774;28;20194;-76
2021/09/18 04:06:21;;;;;;;19.35;17.55;;;;;;;11.88;100.00;98535.03;2050110;29;20213;-77
2021/09/18 04:07:23;;;;;;;19.27;17.53;;;;;;;11.93;100.00;98538.66;2050169;29;20187;-77
2021/09/18 04:08:23;;;;;;;19.98;17.98;;;;;;;11.89;100.00;98533.13;2058709;28;20863;-77
2021/09/18 04:09:25;;;;;;;20.47;18.57;;;;;;;11.89;100.00;98539.25;2058782;28;20194;-76
2021/09/18 04:10:26;;;;;;;20.15;18.42;;;;;;;11.88;100.00;98536.91;2058677;28;20678;-77
2021/09/18 04:11:27;;;;;;;21.20;19.30;;;;;;;11.92;100.00;98537.06;2050127;29;20677;-77
2021/09/18 04:12:28;;;;;;;20.83;18.75;;;;;;;11.95;100.00;98537.22;2041852;29;20214;-77
2021/09/18 04:13:31;;;;;;;20.90;18.97;;;;;;;12.00;100.00;98542.41;2050179;28;20189;-77
2021/09/18 04:14:32;;;;;;;20.95;18.95;;;;;;;11.95;100.00;98534.53;2050069;29;20233;-76
2021/09/18 04:15:33;;;;;;;22.07;20.00;;;;;;;11.93;100.00;98535.97;2050205;29;20731;-76
2021/09/18 04:16:34;;;;;;;22.33;20.23;;;;;;;11.93;100.00;98533.31;2058773;28;20675;-77
2021/09/18 04:17:35;;;;;;;22.07;20.10;;;;;;;11.91;100.00;98530.94;2049665;29;20597;-77
2021/09/18 04:18:37;;;;;;;21.83;19.70;;;;;;;11.89;100.00;98535.81;2049980;29;20234;-77
2021/09/18 04:19:39;;;;;;;21.67;19.58;;;;;;;11.87;100.00;98533.44;2050324;28;20238;-76
2021/09/18 04:20:41;;;;;;;22.40;20.33;;;;;;;11.88;100.00;98543.03;2049670;29;20198;-77
2021/09/18 04:21:41;;;;;;;22.60;20.48;;;;;;;11.86;100.00;98533.78;2042028;29;20219;-77
2021/09/18 04:22:43;;;;;;;22.43;20.20;;;;;;;11.88;100.00;98542.25;2050297;29;20212;-76
2021/09/18 04:23:44;;;;;;;22.02;19.83;;;;;;;11.89;100.00;98546.50;2058621;28;20189;-77
2021/09/18 04:24:45;;;;;;;27.23;21.13;;;;;;;11.89;100.00;98536.59;2058680;28;20546;-77
2021/09/18 04:25:47;;;;;;;22.92;20.92;;;;;;;11.88;100.00;98545.72;2049618;29;20712;-76
2021/09/18 04:26:57;;;;;;;24.27;21.92;;;;;;;11.89;100.00;98549.94;2050040;29;20226;-77
2021/09/18 04:27:59;;;;;;;23.63;21.63;;;;;;;11.93;100.00;98546.66;2051554;28;20230;-77
2021/09/18 04:29:02;;;;;;;24.20;21.90;;;;;;;11.91;100.00;98547.00;2049426;29;20210;-76
2021/09/18 04:30:03;;;;;;;24.42;22.20;;;;;;;11.88;100.00;98548.38;2049861;29;20234;-77
2021/09/18 04:31:05;;;;;;;26.00;23.15;;;;;;;11.90;100.00;98550.75;2050257;28;20230;-77
2021/09/18 04:32:06;;;;;;;25.50;22.95;;;;;;;11.90;100.00;98553.41;2058711;28;20653;-77
2021/09/18 04:33:09;;;;;;;25.77;23.30;;;;;;;11.91;100.00;98546.19;2049594;29;20563;-76
2021/09/18 04:34:14;;;;;;;24.48;22.52;;;;;;;11.92;100.00;98553.13;2049155;29;20206;-77
2021/09/18 04:35:15;;;;;;;26.17;23.45;;;;;;;11.91;100.00;98554.22;2049927;29;20194;-77
2021/09/18 04:36:17;;;;;;;24.90;22.67;;;;;;;11.91;100.00;98562.25;2041891;29;20199;-77
2021/09/18 04:37:17;;;;;;;25.00;22.80;;;;;;;11.91;100.00;98552.34;2049547;28;20643;-77
2021/09/18 04:38:19;;;;;;;25.80;23.50;;;;;;;11.92;100.00;98563.81;2057937;28;20198;-77
2021/09/18 04:39:20;;;;;;;26.95;24.35;;;;;;;11.91;100.00;98547.00;2058525;28;20612;-77
2021/09/18 04:40:21;;;;;;;30.77;24.97;;;;;;;11.91;100.00;98552.34;2058474;28;20189;-77
2021/09/18 04:41:26;;;;;;;26.48;24.02;;;;;;;11.95;100.00;98552.47;2058429;28;20193;-77